Share

Ankara, Turkey

Esenboga (LTAC) Elev 3114 ft | 40.13 °N, 33.00 °E | Change Station

Current weather conditions updated 11 minutes ago

Scattered Clouds
Scattered Clouds
66 °F
Feels Like 66 °F
N
7
Wind Variable Wind from South
Sunrise 6:04 AM
Sunset 7:30 PM
Moon Waning Gibbous

Today is forecast to be Cooler than yesterday. Scattered thunderstorms possible.

Pressure 29.89 in
Visibility 6.2 miles
Clouds Scattered Clouds 4000 ft
Dew Point 34 °F
Humidity 30%
Rainfall 0.00 in
Snow Depth Not available.
UV 8 out of 16
Pollen Not available.
Air Quality Not available.
Flu Activity Not available.
METAR LTAC 190950Z 18006KT 140V240 9999 SCT040 19/01 Q1012 TEMPO 21025G35KT -TSRA

More Conditions Fewer Conditions

Pressure 29.89 in
Visibility 6.2 miles
Clouds Scattered Clouds 4000 ft
Dew Point 34 °F
Humidity 30%
Rainfall 0.00 in
Snow Depth Not available.
UV 8 out of 16
Pollen Not available.
Air Quality Not available.
Flu Activity Not available.
METAR LTAC 190950Z 18006KT 140V240 9999 SCT040 19/01 Q1012 TEMPO 21025G35KT -TSRA

More Conditions Fewer Conditions

10-Day Weather Forecast

Almanac

Astronomy

Apr. 19, 2014 Rise Set
Actual Time 6:04 AM EEST 7:30 PM EEST
Civil Twilight 5:36 AM EEST 7:58 PM EEST
Nautical Twilight 5:02 AM EEST 8:33 PM EEST
Astronomical Twilight 4:26 AM EEST 9:09 PM EEST
Moon 11:52 PM EEST 9:03 AM EEST
Length of Visible Light 14h 22m
Length of Day
13h 25m
Tomorrow will be 2m 28s longer.
Waning Gibbous, 81% of the Moon is Illuminated
Today
Waning Gibbous
Apr 22
Last Quarter
Apr 29
New
May 6
First Quarter
May 14
Full

Yesterday's Extremes

Country Highs Country Lows

Community

  • Sunset Silhouettes
    Sunset Silhouettes
  • FL sunset Perico Isle
    FL sunset Perico Isle
  • Cloudy spring view
    Cloudy spring view
  • Old barn
    Old barn
  • What's for Lunch?
    What's for Lunch?

WunderPhotos

Upload Photos

1,702,676 photos uploaded!

WunderBlogs® & News

Nearby

Snow Depth

Not available.

Coastal Water Temperatures

Place Temperature
No Stations Reporting

Earthquake Activity

City Distance Mag. Time & Date
No recent earthquake activity has been reported nearby.
Minimum magnitude displayed is 2.5.

Nearby Weather Stations

Station Location Temp. Heat Index Dew Point Humidity Wind Precip. Elev Updated Type
Cayyolu, Ankara 70.7 °F 76 °F 39 °F 31% NW  at  1.2 mph 0.00 in / hr 3114 ft 1:01 PM EEST Rapid Fire

Show More Stations Show Fewer Stations

What do you think?

We're not finished. Please let us know what you like, what you don't like, and what you are still missing.